Startpagina
METAR-TAF:

METAR-TAF

Vliegvelden :

Roman Tmetuchl International Airport

Koror, Babeldaob, Palau

breedte: 07-22N, lengte: 134-32E, hoogte: 54 m

Actueel weer

Dit bericht is 1 uur en het 1 minuten geleden gemaakt, om 16:50 UTC
Weinig wind
Temperatuur 26°C
Vochtigheid 94%
Druk 1009 hPa
Zicht: 24.1 km
Verspreide wolken op 1600 ft
Gebroken wolken op 12000 ft
Geheel bewolkt op 30000 ft

METAR: PTRO 181650Z 00000KT 15SM SCT016 BKN120 OVC300 26/25 A2981

Tijdstip: 02:51 (17:51 UTC)

Verwachting

Dit bericht is 18 minuten geleden gemaakt, om 17:33 UTC
Verwachting geldig van 18 om 18 UTC tot 19 om 18 UTC
Wind 5 kt uit variabele richting
Zicht: 10 km
Verspreide wolken op 1600 ft
Gebroken wolken op 16000 ft

TAF: PTRO 181733Z 1818/1918 VRB05KT P6SM SCT016 BKN160

Waarnemingen en weersverwachtingen van meer dan 4000 vliegvelden (METAR en TAF).

De beschikbare stations zijn de gele en rode punten op de kaart.

Ga met uw muis naar het station om de naam te zien.

Klik dan om waarnemingen en weersverwachtingen te zien.

kaart wijzigen: klik op de groene knoppen met een zwart kruis om in te zoomen, op de groene knop met een streepje om uit te zoomen of op de groene pijlen voor aangrenzende kaarten.


METAR-TAF: